Wizard — WDC6082 — position and weather

sailwx.info

Track history (hours):
 
Tides and Currents Weather Stations Pressure Air Temp Water Temp Dewpoint Dewpoint Depression Visibility Wind Speed Wind Dir Waves Ship Positions

Wizard

Owner: K. H.Colburn Inc, Redmond, WA. More information available from US FCC via Universal Licensing System and Coast Guard Vessel Documentation Center.

Last reported at 2017-Jun-19 23:35 UTC. Time now 2017-Jun-27 07:15 UTC.
Position N 49°14' W 126°53'.

Length 52 m; draft 0.4 m.

MMSI: 5491.

Date/timePositionNaut miles runAvg speedWind from/ knotsBaromVisibWave heightAir tempDewpointWater temp
2017-Jun-19 23:35N 49°14' W 126°53'1 9.0
2017-Jun-19 23:26N 49°13' W 126°51'4 9.3
2017-Jun-19 23:00N 49°11' W 126°46'4 9.1
2017-Jun-19 22:30N 49°08' W 126°41'5 9.0
2017-Jun-19 21:59N 49°06' W 126°35'13 9.4
2017-Jun-19 20:39N 48°58' W 126°20'1 9.5
2017-Jun-19 20:30N 48°57' W 126°18'6 9.4
2017-Jun-19 19:55N 48°53' W 126°12'4 9.7
2017-Jun-19 19:31N 48°51' W 126°07'5 9.9
2017-Jun-19 19:00N 48°48' W 126°01'5 9.6
2017-Jun-19 18:30N 48°45' W 125°55'510.0
2017-Jun-19 18:00N 48°42' W 125°49'510.1
2017-Jun-19 17:30N 48°39' W 125°43'5 9.7
2017-Jun-19 17:00N 48°38' W 125°36'5 9.9
2017-Jun-19 16:31N 48°37' W 125°28'510.0
2017-Jun-19 16:00N 48°36' W 125°21'510.1
2017-Jun-19 15:30N 48°35' W 125°13'510.5
2017-Jun-19 15:01N 48°34' W 125°06'510.3
2017-Jun-19 14:29N 48°33' W 124°58'1010.1
2017-Jun-19 13:30N 48°30' W 124°43'5 9.9
2017-Jun-19 13:01N 48°29' W 124°37'510.7
2017-Jun-19 12:30N 48°27' W 124°29'611.6
2017-Jun-19 12:00N 48°25' W 124°21'611.8
2017-Jun-19 11:30N 48°22' W 124°13'611.6
2017-Jun-19 11:00N 48°20' W 124°05'611.3
2017-Jun-19 10:30N 48°18' W 123°57'611.0
2017-Jun-19 10:00N 48°17' W 123°49'611.1
2017-Jun-19 09:30N 48°16' W 123°40'510.8
2017-Jun-19 09:00N 48°15' W 123°32'5 9.9
2017-Jun-19 08:29N 48°15' W 123°25'510.0
2017-Jun-19 08:00N 48°14' W 123°18'510.0
2017-Jun-19 07:30N 48°13' W 123°10'510.0
2017-Jun-19 07:00N 48°13' W 123°03'5 9.7
2017-Jun-19 06:31N 48°12' W 122°56'4 8.7
2017-Jun-19 06:00N 48°12' W 122°49'16 7.1
2017-Jun-19 03:46N 47°59' W 122°35'2 8.0
2017-Jun-19 03:31N 47°57' W 122°33'4 8.2
2017-Jun-19 03:00N 47°54' W 122°29'4 9.0
2017-Jun-19 02:31N 47°50' W 122°27'5 9.4
2017-Jun-19 02:01N 47°45' W 122°26'5 9.2
2017-Jun-19 01:31N 47°41' W 122°25'1 2.4
2017-Jun-19 01:00N 47°40' W 122°24'0 0.5
2017-Jun-19 00:30N 47°40' W 122°23'0 0.1
2017-Jun-19 00:01N 47°40' W 122°23'0 0.3
2017-Jun-18 23:30N 47°40' W 122°23'0 0.0
2017-Jun-18 23:00N 47°40' W 122°23'0 0.0
2017-Jun-18 22:30N 47°40' W 122°23'0 0.0
2017-Jun-18 22:00N 47°40' W 122°23'0 0.0
2017-Jun-18 21:30N 47°40' W 122°23'0 0.0
2017-Jun-18 21:00N 47°40' W 122°23'0 0.0
2017-Jun-18 20:30N 47°40' W 122°23'0 0.0
2017-Jun-18 20:00N 47°40' W 122°23'0 0.0
2017-Jun-18 19:30N 47°40' W 122°23'0 0.0
2017-Jun-18 19:00N 47°40' W 122°23'0 0.0
2017-Jun-18 18:30N 47°40' W 122°23'0 0.0
2017-Jun-18 18:00N 47°40' W 122°23'0 0.0
2017-Jun-18 17:30N 47°40' W 122°23'0 0.0
2017-Jun-18 17:00N 47°40' W 122°23'0 0.0
2017-Jun-18 16:29N 47°40' W 122°23'0 0.0
2017-Jun-18 16:00N 47°40' W 122°23'0 0.0
2017-Jun-18 15:30N 47°40' W 122°23'0 0.0
2017-Jun-18 15:01N 47°40' W 122°23'0 0.0
2017-Jun-18 14:01N 47°40' W 122°23'0 0.0
2017-Jun-18 13:31N 47°40' W 122°23'0 0.0
2017-Jun-18 13:00N 47°40' W 122°23'0 0.0
2017-Jun-18 12:30N 47°40' W 122°23'0 0.0
2017-Jun-18 12:00N 47°40' W 122°23'0 0.0
2017-Jun-18 11:30N 47°40' W 122°23'0 0.0
2017-Jun-18 11:00N 47°40' W 122°23'0 0.0
2017-Jun-18 10:30N 47°40' W 122°23'0 0.0
2017-Jun-18 10:01N 47°40' W 122°23'0 0.0
2017-Jun-18 09:30N 47°40' W 122°23'0 0.0
2017-Jun-18 09:00N 47°40' W 122°23'0 0.0
2017-Jun-18 08:31N 47°40' W 122°23'0 0.0
2017-Jun-18 08:00N 47°40' W 122°23'0 0.0
2017-Jun-18 07:30N 47°40' W 122°23'0 0.0
2017-Jun-18 07:00N 47°40' W 122°23'0 0.0
2017-Jun-18 06:31N 47°40' W 122°23'0 0.0
2017-Jun-18 06:01N 47°40' W 122°23'0 0.0
2017-Jun-18 05:30N 47°40' W 122°23'0 0.0
2017-Jun-18 05:01N 47°40' W 122°23'0 0.0
2017-Jun-18 04:30N 47°40' W 122°23'0 0.0
2017-Jun-18 04:01N 47°40' W 122°23'0 0.0
2017-Jun-18 03:30N 47°40' W 122°23'0 0.0
2017-Jun-18 03:01N 47°40' W 122°23'0 0.0
2017-Jun-18 02:31N 47°40' W 122°23'0 0.0
2017-Jun-18 02:00N 47°40' W 122°23'0 0.0
2017-Jun-18 01:30N 47°40' W 122°23'0 0.0
2017-Jun-18 01:01N 47°40' W 122°23'0 0.0
2017-Jun-18 00:31N 47°40' W 122°23'0 0.0
2017-Jun-18 00:00N 47°40' W 122°23'0 0.0
2017-Jun-17 23:30N 47°40' W 122°23'0 0.0
2017-Jun-17 23:00N 47°40' W 122°23'0 0.0
2017-Jun-17 22:31N 47°40' W 122°23'0 0.0
2017-Jun-17 22:00N 47°40' W 122°23'0 0.0
2017-Jun-17 21:31N 47°40' W 122°23'0 0.0
2017-Jun-17 21:00N 47°40' W 122°23'0 0.0
2017-Jun-17 20:30N 47°40' W 122°23'0 0.0
2017-Jun-17 20:01N 47°40' W 122°23'0 0.0
2017-Jun-17 19:30N 47°40' W 122°23'0 0.0
2017-Jun-17 19:00N 47°40' W 122°23'0 0.0
2017-Jun-17 18:30N 47°40' W 122°23'0 0.0
2017-Jun-17 18:01N 47°40' W 122°23'0 0.0
2017-Jun-17 17:31N 47°40' W 122°23'0 0.0
2017-Jun-17 17:00N 47°40' W 122°23'0 0.0
2017-Jun-17 16:30N 47°40' W 122°23'0 0.0
2017-Jun-17 16:00N 47°40' W 122°23'0 0.0
2017-Jun-17 15:30N 47°40' W 122°23'0 0.0
2017-Jun-17 15:01N 47°40' W 122°23'0 0.0
2017-Jun-17 14:01N 47°40' W 122°23'0 0.0
2017-Jun-17 13:31N 47°40' W 122°23'0 0.0
2017-Jun-17 13:00N 47°40' W 122°23'0 0.0
2017-Jun-17 12:31N 47°40' W 122°23'0 0.0
2017-Jun-17 12:01N 47°40' W 122°23'0 0.0
2017-Jun-17 11:30N 47°40' W 122°23'0 0.0
2017-Jun-17 11:01N 47°40' W 122°23'0 0.0
2017-Jun-17 10:30N 47°40' W 122°23'0 0.0
2017-Jun-17 10:00N 47°40' W 122°23'0 0.0
2017-Jun-17 09:30N 47°40' W 122°23'0 0.0
2017-Jun-17 09:00N 47°40' W 122°23'0 0.0
2017-Jun-17 08:30N 47°40' W 122°23'0 0.0
2017-Jun-17 08:01N 47°40' W 122°23'0 0.0
2017-Jun-17 07:31N 47°40' W 122°23'0 0.0
2017-Jun-17 07:01N 47°40' W 122°23'0 0.0
2017-Jun-17 06:31N 47°40' W 122°23'0 0.0
2017-Jun-17 06:01N 47°40' W 122°23'0 0.0
2017-Jun-17 05:31N 47°40' W 122°23'0 0.0
2017-Jun-17 05:01N 47°40' W 122°23'0 0.0
2017-Jun-17 04:30N 47°40' W 122°23'0 0.0
2017-Jun-17 04:01N 47°40' W 122°23'0 0.0
2017-Jun-17 03:30N 47°40' W 122°23'0 0.0
2017-Jun-17 03:00N 47°40' W 122°23'0 0.0
2017-Jun-17 02:31N 47°40' W 122°23'0 0.0
2017-Jun-17 02:01N 47°40' W 122°23'0 0.0
2017-Jun-17 01:31N 47°40' W 122°23'0 0.0
2017-Jun-17 01:01N 47°40' W 122°23'0 0.0
2017-Jun-17 00:31N 47°40' W 122°23'0 0.0
2017-Jun-17 00:00N 47°40' W 122°23'0 0.0
2017-Jun-16 23:30N 47°40' W 122°23'0 0.0
2017-Jun-16 23:01N 47°40' W 122°23'0 0.0
2017-Jun-16 22:30N 47°40' W 122°23'0 0.0
2017-Jun-16 22:00N 47°40' W 122°23'0 0.0
2017-Jun-16 21:31N 47°40' W 122°23'0 0.0
2017-Jun-16 21:01N 47°40' W 122°23'0 0.0
2017-Jun-16 20:31N 47°40' W 122°23'0 0.0
2017-Jun-16 20:01N 47°40' W 122°23'0 0.0
2017-Jun-16 19:31N 47°40' W 122°23'0 0.0
2017-Jun-16 19:01N 47°40' W 122°23'0 0.0
2017-Jun-16 18:30N 47°40' W 122°23'0 0.0
2017-Jun-16 18:00N 47°40' W 122°23'0 0.0
2017-Jun-16 17:30N 47°40' W 122°23'0 0.0
2017-Jun-16 17:01N 47°40' W 122°23'0 0.0
2017-Jun-16 16:30N 47°40' W 122°23'0 0.0
2017-Jun-16 16:00N 47°40' W 122°23'0 0.0
2017-Jun-16 15:30N 47°40' W 122°23'0 0.0
2017-Jun-16 15:01N 47°40' W 122°23'0 0.0
2017-Jun-16 14:00N 47°40' W 122°23'0 0.0
2017-Jun-16 13:31N 47°40' W 122°23'0 0.0
2017-Jun-16 13:00N 47°40' W 122°23'0 0.0
2017-Jun-16 12:31N 47°40' W 122°23'0 0.0
2017-Jun-16 12:01N 47°40' W 122°23'0 0.0
2017-Jun-16 11:30N 47°40' W 122°23'0 0.0
2017-Jun-16 11:00N 47°40' W 122°23'0 0.0
2017-Jun-16 10:30N 47°40' W 122°23'0 0.0
2017-Jun-16 10:00N 47°40' W 122°23'0 0.0
2017-Jun-16 09:30N 47°40' W 122°23'0 0.0
2017-Jun-16 09:01N 47°40' W 122°23'0 0.0
2017-Jun-16 08:30N 47°40' W 122°23'0 0.0
2017-Jun-16 08:00N 47°40' W 122°23'0 0.0
2017-Jun-16 07:30N 47°40' W 122°23'0 0.0
2017-Jun-16 07:00N 47°40' W 122°23'0 0.0
2017-Jun-16 06:31N 47°40' W 122°23'0 0.0
2017-Jun-16 06:00N 47°40' W 122°23'0 0.0
2017-Jun-16 05:31N 47°40' W 122°23'0 0.0
2017-Jun-16 05:00N 47°40' W 122°23'0 0.0
2017-Jun-16 04:30N 47°40' W 122°23'0 0.0
2017-Jun-16 04:01N 47°40' W 122°23'0 0.0
2017-Jun-16 03:30N 47°40' W 122°23'0 0.0
2017-Jun-16 03:01N 47°40' W 122°23'0 0.0
2017-Jun-16 02:31N 47°40' W 122°23'0 0.0
2017-Jun-16 02:01N 47°40' W 122°23'0 0.0
2017-Jun-16 01:31N 47°40' W 122°23'0 0.0
2017-Jun-16 01:01N 47°40' W 122°23'0 0.0
2017-Jun-16 00:31N 47°40' W 122°23'0 0.0
2017-Jun-15 23:59N 47°40' W 122°23'0 0.0
2017-Jun-15 23:31N 47°40' W 122°23'0 0.0
2017-Jun-15 23:00N 47°40' W 122°23'0 0.0
2017-Jun-15 22:30N 47°40' W 122°23'0 0.0
2017-Jun-15 22:00N 47°40' W 122°23'0 0.1
2017-Jun-15 21:30N 47°40' W 122°23'0 0.1
2017-Jun-15 21:01N 47°40' W 122°23'0 0.0
2017-Jun-15 20:30N 47°40' W 122°23'0 0.0
2017-Jun-15 20:00N 47°40' W 122°23'0 0.0
2017-Jun-15 19:31N 47°40' W 122°23'0 0.0
2017-Jun-15 19:01N 47°40' W 122°23'0 0.0
2017-Jun-15 18:31N 47°40' W 122°23'0 0.0
2017-Jun-15 18:01N 47°40' W 122°23'0 0.0
2017-Jun-15 17:30N 47°40' W 122°23'0 0.0
2017-Jun-15 17:01N 47°40' W 122°23'0 0.0
2017-Jun-15 16:31N 47°40' W 122°23'0 0.0
2017-Jun-15 16:01N 47°40' W 122°23'0 0.0
2017-Jun-15 15:31N 47°40' W 122°23'0 0.0
2017-Jun-15 15:01N 47°40' W 122°23'0 0.0
2017-Jun-15 14:01N 47°40' W 122°23'0 0.0
2017-Jun-15 13:31N 47°40' W 122°23'0 0.0
2017-Jun-15 13:01N 47°40' W 122°23'0 0.0
2017-Jun-15 12:31N 47°40' W 122°23'0 0.0
2017-Jun-15 12:01N 47°40' W 122°23'0 0.0
2017-Jun-15 11:31N 47°40' W 122°23'0 0.0
2017-Jun-15 11:01N 47°40' W 122°23'0 0.0
2017-Jun-15 10:31N 47°40' W 122°23'0 0.0
2017-Jun-15 10:00N 47°40' W 122°23'0 0.0
2017-Jun-15 09:31N 47°40' W 122°23'0 0.0
2017-Jun-15 09:01N 47°40' W 122°23'0 0.0
2017-Jun-15 08:31N 47°40' W 122°23'0 0.0
2017-Jun-15 08:01N 47°40' W 122°23'0 0.0
2017-Jun-15 07:31N 47°40' W 122°23'0 0.0
2017-Jun-15 07:01N 47°40' W 122°23'0 0.0
2017-Jun-15 06:31N 47°40' W 122°23'0 0.0
2017-Jun-15 06:01N 47°40' W 122°23'0 0.0
2017-Jun-15 05:30N 47°40' W 122°23'0 0.0
2017-Jun-15 05:01N 47°40' W 122°23'0 0.0
2017-Jun-15 04:31N 47°40' W 122°23'0 0.0
2017-Jun-15 04:01N 47°40' W 122°23'0 0.0
2017-Jun-15 03:31N 47°40' W 122°23'0 0.0
2017-Jun-15 03:01N 47°40' W 122°23'0 0.0
2017-Jun-15 02:30N 47°40' W 122°23'0 0.0
2017-Jun-15 02:01N 47°40' W 122°23'0 0.0
2017-Jun-15 01:31N 47°40' W 122°23'0 0.0
2017-Jun-15 01:01N 47°40' W 122°23'0 0.0
2017-Jun-15 00:31N 47°40' W 122°23'0 0.0
2017-Jun-15 00:01N 47°40' W 122°23'0 0.0
2017-Jun-14 23:31N 47°40' W 122°23'0 0.0
2017-Jun-14 23:01N 47°40' W 122°23'0 0.0
2017-Jun-14 22:31N 47°40' W 122°23'0 0.0
2017-Jun-14 22:01N 47°40' W 122°23'0 0.0
2017-Jun-14 21:31N 47°40' W 122°23'0 0.0
2017-Jun-14 21:01N 47°40' W 122°23'0 0.0
2017-Jun-14 20:31N 47°40' W 122°23'0 0.0
2017-Jun-14 20:01N 47°40' W 122°23'0 0.0
2017-Jun-14 19:31N 47°40' W 122°23'0 0.0
2017-Jun-14 19:01N 47°40' W 122°23'0 0.0
2017-Jun-14 18:31N 47°40' W 122°23'0 0.0
2017-Jun-14 18:01N 47°40' W 122°23'0 0.0
2017-Jun-14 17:30N 47°40' W 122°23'0 0.0
2017-Jun-14 17:01N 47°40' W 122°23'0 0.0
2017-Jun-14 16:31N 47°40' W 122°23'0 0.0
2017-Jun-14 16:01N 47°40' W 122°23'0 0.0
2017-Jun-14 15:30N 47°40' W 122°23'0 0.0
2017-Jun-14 15:01N 47°40' W 122°23'0 0.0
2017-Jun-14 14:30N 47°40' W 122°23'0 0.0
2017-Jun-14 13:31N 47°40' W 122°23'0 0.0
2017-Jun-14 13:01N 47°40' W 122°23'0 0.0
2017-Jun-14 12:31N 47°40' W 122°23'0 0.0
2017-Jun-14 12:01N 47°40' W 122°23'0 0.0
2017-Jun-14 11:31N 47°40' W 122°23'0 0.0
2017-Jun-14 11:01N 47°40' W 122°23'0 0.0
2017-Jun-14 10:31N 47°40' W 122°23'0 0.0
2017-Jun-14 10:01N 47°40' W 122°23'0 0.0
2017-Jun-14 09:31N 47°40' W 122°23'0 0.0
2017-Jun-14 09:01N 47°40' W 122°23'0 0.0
2017-Jun-14 08:31N 47°40' W 122°23'0 0.0
2017-Jun-14 08:01N 47°40' W 122°23'0 0.0
2017-Jun-14 07:31N 47°40' W 122°23'0 0.0
2017-Jun-14 07:01N 47°40' W 122°23'0 0.0
2017-Jun-14 06:31N 47°40' W 122°23'0 0.0
2017-Jun-14 06:00N 47°40' W 122°23'0 0.0
2017-Jun-14 05:31N 47°40' W 122°23'0 0.0
2017-Jun-14 05:01N 47°40' W 122°23'0 0.0
2017-Jun-14 04:31N 47°40' W 122°23'0 0.0
2017-Jun-14 04:01N 47°40' W 122°23'0 0.0
2017-Jun-14 03:31N 47°40' W 122°23'0 0.0
2017-Jun-14 03:01N 47°40' W 122°23'0 0.0
2017-Jun-14 02:31N 47°40' W 122°23'0 0.0
2017-Jun-14 02:01N 47°40' W 122°23'0 0.0
2017-Jun-14 01:31N 47°40' W 122°23'0 0.0
2017-Jun-14 01:01N 47°40' W 122°23'0 0.0
2017-Jun-14 00:31N 47°40' W 122°23'0 0.0
2017-Jun-14 00:01N 47°40' W 122°23'0 0.0
2017-Jun-13 23:31N 47°40' W 122°23'0 0.0
2017-Jun-13 23:01N 47°40' W 122°23'0 0.0
2017-Jun-13 22:31N 47°40' W 122°23'0 0.0
2017-Jun-13 22:01N 47°40' W 122°23'0 0.0
2017-Jun-13 21:31N 47°40' W 122°23'0 0.0
2017-Jun-13 21:01N 47°40' W 122°23'0 0.0
2017-Jun-13 20:31N 47°40' W 122°23'0 0.0
2017-Jun-13 20:01N 47°40' W 122°23'0 0.0
2017-Jun-13 19:31N 47°40' W 122°23'0 0.0
2017-Jun-13 19:01N 47°40' W 122°23'0 0.0
2017-Jun-13 18:31N 47°40' W 122°23'0 0.0
2017-Jun-13 18:00N 47°40' W 122°23'0 0.0
2017-Jun-13 17:31N 47°40' W 122°23'0 0.0
2017-Jun-13 17:00N 47°40' W 122°23'0 0.0
2017-Jun-13 16:30N 47°40' W 122°23'0 0.0
2017-Jun-13 16:00N 47°40' W 122°23'0 0.0
2017-Jun-13 15:30N 47°40' W 122°23'0 0.0
2017-Jun-13 15:00N 47°40' W 122°23'0 0.0
2017-Jun-13 14:00N 47°40' W 122°23'0 0.0
2017-Jun-13 13:30N 47°40' W 122°23'0 0.0
2017-Jun-13 13:00N 47°40' W 122°23'0 0.0
2017-Jun-13 12:30N 47°40' W 122°23'0 0.0
2017-Jun-13 12:00N 47°40' W 122°23'0 0.0
2017-Jun-13 11:30N 47°40' W 122°23'0 0.0
2017-Jun-13 11:00N 47°40' W 122°23'0 0.0
2017-Jun-13 10:30N 47°40' W 122°23'0 0.0
2017-Jun-13 10:00N 47°40' W 122°23'0 0.0
2017-Jun-13 09:30N 47°40' W 122°23'0 0.0
2017-Jun-13 09:00N 47°40' W 122°23'0 0.0
2017-Jun-13 08:30N 47°40' W 122°23'0 0.0
2017-Jun-13 08:00N 47°40' W 122°23'0 0.0
2017-Jun-13 07:30N 47°40' W 122°23'0 0.0
2017-Jun-13 07:00N 47°40' W 122°23'0 0.0
2017-Jun-13 06:30N 47°40' W 122°23'0 0.0
2017-Jun-13 06:00N 47°40' W 122°23'0 0.0
2017-Jun-13 05:30N 47°40' W 122°23'0 0.0
2017-Jun-13 05:00N 47°40' W 122°23'0 0.0
2017-Jun-13 04:30N 47°40' W 122°23'0 0.0
2017-Jun-13 04:00N 47°40' W 122°23'0 0.0
2017-Jun-13 03:30N 47°40' W 122°23'0 0.0
2017-Jun-13 03:00N 47°40' W 122°23'0 0.0
2017-Jun-13 02:30N 47°40' W 122°23'0 0.0
2017-Jun-13 02:00N 47°40' W 122°23'0 0.0
2017-Jun-13 01:30N 47°40' W 122°23'0 0.0
2017-Jun-13 01:00N 47°40' W 122°23'0 0.0
2017-Jun-13 00:30N 47°40' W 122°23'0 0.0
2017-Jun-13 00:00N 47°40' W 122°23'0 0.0
2017-Jun-12 21:17N 47°40' W 122°23'0 0.0
2017-Jun-12 21:01N 47°40' W 122°23'0 0.0
2017-Jun-12 20:31N 47°40' W 122°23'0 0.0
2017-Jun-12 20:01N 47°40' W 122°23'0 0.0
2017-Jun-12 19:30N 47°40' W 122°23'0 0.0
2017-Jun-12 19:01N 47°40' W 122°23'0 0.0
2017-Jun-12 18:30N 47°40' W 122°23'0 0.0
2017-Jun-12 18:00N 47°40' W 122°23'0 0.0
2017-Jun-12 17:30N 47°40' W 122°23'0 0.0
2017-Jun-12 16:32N 47°40' W 122°23'0 0.0
2017-Jun-12 16:30N 47°40' W 122°23'0 0.0
2017-Jun-12 16:00N 47°40' W 122°23'0 0.0
2017-Jun-12 15:30N 47°40' W 122°23'0 0.0
2017-Jun-12 15:00N 47°40' W 122°23'0 0.0
2017-Jun-12 14:30N 47°40' W 122°23'0 0.0
2017-Jun-12 13:30N 47°40' W 122°23'0 0.0
2017-Jun-12 13:00N 47°40' W 122°23'0 0.0
2017-Jun-12 12:30N 47°40' W 122°23'0 0.0
2017-Jun-12 12:00N 47°40' W 122°23'0 0.0
2017-Jun-12 11:30N 47°40' W 122°23'0 0.0
2017-Jun-12 11:00N 47°40' W 122°23'0 0.0
2017-Jun-12 10:31N 47°40' W 122°23'0 0.0
2017-Jun-12 10:01N 47°40' W 122°23'0 0.0
2017-Jun-12 09:30N 47°40' W 122°23'0 0.0
2017-Jun-12 09:00N 47°40' W 122°23'0 0.0
2017-Jun-12 08:30N 47°40' W 122°23'0 0.0
2017-Jun-12 08:00N 47°40' W 122°23'0 0.0
2017-Jun-12 07:30N 47°40' W 122°23'0 0.0
2017-Jun-12 07:00N 47°40' W 122°23'0 0.0
2017-Jun-12 06:30N 47°40' W 122°23'0 0.0
2017-Jun-12 06:00N 47°40' W 122°23'0 0.0
2017-Jun-12 05:30N 47°40' W 122°23'0 0.0
2017-Jun-12 05:00N 47°40' W 122°23'0 0.0
2017-Jun-12 04:31N 47°40' W 122°23'0 0.0
2017-Jun-12 04:00N 47°40' W 122°23'0 0.0
2017-Jun-12 03:31N 47°40' W 122°23'0 0.0
2017-Jun-12 03:00N 47°40' W 122°23'0 0.0
2017-Jun-12 02:30N 47°40' W 122°23'0 0.0
2017-Jun-12 02:00N 47°40' W 122°23'0 0.0
2017-Jun-12 01:30N 47°40' W 122°23'0 0.0
2017-Jun-12 01:00N 47°40' W 122°23'0 0.0
2017-Jun-12 00:31N 47°40' W 122°23'0 0.0
2017-Jun-12 00:00N 47°40' W 122°23'0 0.0
2017-Jun-11 23:30N 47°40' W 122°23'0 0.0
2017-Jun-11 23:00N 47°40' W 122°23'0 0.0
2017-Jun-11 22:31N 47°40' W 122°23'0 0.0
2017-Jun-11 22:00N 47°40' W 122°23'0 0.0
2017-Jun-11 21:30N 47°40' W 122°23'0 0.0
2017-Jun-11 21:00N 47°40' W 122°23'0 0.0
2017-Jun-11 20:30N 47°40' W 122°23'0 0.0
2017-Jun-11 20:00N 47°40' W 122°23'0 0.0
2017-Jun-11 19:30N 47°40' W 122°23'0 0.0
2017-Jun-11 19:00N 47°40' W 122°23'0 0.0
2017-Jun-11 18:30N 47°40' W 122°23'0 0.0
2017-Jun-11 18:00N 47°40' W 122°23'0 0.0
2017-Jun-11 17:30N 47°40' W 122°23'0 0.0
2017-Jun-11 17:00N 47°40' W 122°23'0 0.0
2017-Jun-11 16:30N 47°40' W 122°23'0 0.0
2017-Jun-11 16:00N 47°40' W 122°23'0 0.0
2017-Jun-11 15:30N 47°40' W 122°23'0 0.0
2017-Jun-11 15:00N 47°40' W 122°23'0 0.0
2017-Jun-11 14:30N 47°40' W 122°23'0 0.0
2017-Jun-11 13:30N 47°40' W 122°23'0 0.0
2017-Jun-11 13:00N 47°40' W 122°23'0 0.0
2017-Jun-11 12:31N 47°40' W 122°23'0 0.0
2017-Jun-11 12:00N 47°40' W 122°23'0 0.0
2017-Jun-11 11:31N 47°40' W 122°23'0 0.0
2017-Jun-11 11:00N 47°40' W 122°23'0 0.0
2017-Jun-11 10:30N 47°40' W 122°23'0 0.0
2017-Jun-11 10:00N 47°40' W 122°23'0 0.0
2017-Jun-11 09:31N 47°40' W 122°23'0 0.0
2017-Jun-11 09:01N 47°40' W 122°23'0 0.0
2017-Jun-11 08:31N 47°40' W 122°23'0 0.0
2017-Jun-11 08:00N 47°40' W 122°23'0 0.0
2017-Jun-11 07:30N 47°40' W 122°23'0 0.0
2017-Jun-11 07:00N 47°40' W 122°23'0 0.0
2017-Jun-11 06:30N 47°40' W 122°23'0 0.0
2017-Jun-11 06:00N 47°40' W 122°23'0 0.0
2017-Jun-11 05:31N 47°40' W 122°23'0 0.0
2017-Jun-11 05:00N 47°40' W 122°23'0 0.0
2017-Jun-11 04:30N 47°40' W 122°23'0 0.0
2017-Jun-11 04:00N 47°40' W 122°23'0 0.0
2017-Jun-11 03:30N 47°40' W 122°23'0 0.0
2017-Jun-11 03:00N 47°40' W 122°23'0 0.0
2017-Jun-11 02:31N 47°40' W 122°23'0 0.0
2017-Jun-11 02:00N 47°40' W 122°23'0 0.0
2017-Jun-11 01:30N 47°40' W 122°23'0 0.0
2017-Jun-11 01:00N 47°40' W 122°23'0 0.0
2017-Jun-11 00:30N 47°40' W 122°23'0 0.0
2017-Jun-11 00:00N 47°40' W 122°23'0 0.0
2017-Jun-10 23:30N 47°40' W 122°23'0 0.0
2017-Jun-10 23:01N 47°40' W 122°23'0 0.0
2017-Jun-10 22:31N 47°40' W 122°23'0 0.0
2017-Jun-10 22:01N 47°40' W 122°23'0 0.0
2017-Jun-10 21:30N 47°40' W 122°23'0 0.0
2017-Jun-10 21:00N 47°40' W 122°23'0 0.0
2017-Jun-10 20:30N 47°40' W 122°23'0 0.0
2017-Jun-10 20:00N 47°40' W 122°23'0 0.0
2017-Jun-10 19:30N 47°40' W 122°23'0 0.0
2017-Jun-10 19:00N 47°40' W 122°23'0 0.0
2017-Jun-10 18:30N 47°40' W 122°23'0 0.0
2017-Jun-10 18:00N 47°40' W 122°23'0 0.0
2017-Jun-10 17:30N 47°40' W 122°23'0 0.0
2017-Jun-10 17:01N 47°40' W 122°23'0 0.0
2017-Jun-10 16:30N 47°40' W 122°23'0 0.0
2017-Jun-10 16:00N 47°40' W 122°23'0 0.0
2017-Jun-10 15:30N 47°40' W 122°23'0 0.0
2017-Jun-10 15:00N 47°40' W 122°23'0 0.0
2017-Jun-10 14:00N 47°40' W 122°23'0 0.0
2017-Jun-10 13:30N 47°40' W 122°23'0 0.0
2017-Jun-10 13:00N 47°40' W 122°23'0 0.0
2017-Jun-10 12:31N 47°40' W 122°23'0 0.0
2017-Jun-10 12:00N 47°40' W 122°23'0 0.0
2017-Jun-10 11:31N 47°40' W 122°23'0 0.0
2017-Jun-10 11:00N 47°40' W 122°23'0 0.0
2017-Jun-10 10:30N 47°40' W 122°23'0 0.0
2017-Jun-10 10:00N 47°40' W 122°23'0 0.0
2017-Jun-10 09:30N 47°40' W 122°23'0 0.0
2017-Jun-10 09:00N 47°40' W 122°23'0 0.0
2017-Jun-10 08:31N 47°40' W 122°23'0 0.0
2017-Jun-10 08:01N 47°40' W 122°23'0 0.0
2017-Jun-10 07:30N 47°40' W 122°23'0 0.0
2017-Jun-10 07:00N 47°40' W 122°23'0 0.0
2017-Jun-10 06:31N 47°40' W 122°23'0 0.0
2017-Jun-10 06:00N 47°40' W 122°23'0 0.0
2017-Jun-10 05:30N 47°40' W 122°23'0 0.0
2017-Jun-10 05:00N 47°40' W 122°23'0 0.0
2017-Jun-10 04:30N 47°40' W 122°23'0 0.0
2017-Jun-10 04:00N 47°40' W 122°23'0 0.0
2017-Jun-10 03:31N 47°40' W 122°23'0 0.0
2017-Jun-10 03:01N 47°40' W 122°23'0 0.0
2017-Jun-10 02:30N 47°40' W 122°23'0 0.0
2017-Jun-10 02:01N 47°40' W 122°23'0 0.0
2017-Jun-10 01:30N 47°40' W 122°23'0 0.0
2017-Jun-10 01:00N 47°40' W 122°23'0 0.0
2017-Jun-10 00:30N 47°40' W 122°23'0 0.0
2017-Jun-10 00:00N 47°40' W 122°23'  
Track history (hours):
 
Tides and Currents Weather Stations Pressure Air Temp Water Temp Dewpoint Dewpoint Depression Visibility Wind Speed Wind Dir Waves Ship Positions

Wizard

Owner: K. H.Colburn Inc, Redmond, WA. More information available from US FCC via Universal Licensing System and Coast Guard Vessel Documentation Center.

Last reported at 2017-Jun-19 23:35 UTC. Time now 2017-Jun-27 07:15 UTC.
Position N 49°14' W 126°53'.

Length 52 m; draft 0.4 m.

MMSI: 5491.

Date/timePositionNaut miles runAvg speedWind from/ knotsBaromVisibWave heightAir tempDewpointWater temp
2017-Jun-19 23:35N 49°14' W 126°53'1 9.0
2017-Jun-19 23:26N 49°13' W 126°51'4 9.3
2017-Jun-19 23:00N 49°11' W 126°46'4 9.1
2017-Jun-19 22:30N 49°08' W 126°41'5 9.0
2017-Jun-19 21:59N 49°06' W 126°35'13 9.4
2017-Jun-19 20:39N 48°58' W 126°20'1 9.5
2017-Jun-19 20:30N 48°57' W 126°18'6 9.4
2017-Jun-19 19:55N 48°53' W 126°12'4 9.7
2017-Jun-19 19:31N 48°51' W 126°07'5 9.9
2017-Jun-19 19:00N 48°48' W 126°01'5 9.6
2017-Jun-19 18:30N 48°45' W 125°55'510.0
2017-Jun-19 18:00N 48°42' W 125°49'510.1
2017-Jun-19 17:30N 48°39' W 125°43'5 9.7
2017-Jun-19 17:00N 48°38' W 125°36'5 9.9
2017-Jun-19 16:31N 48°37' W 125°28'510.0
2017-Jun-19 16:00N 48°36' W 125°21'510.1
2017-Jun-19 15:30N 48°35' W 125°13'510.5
2017-Jun-19 15:01N 48°34' W 125°06'510.3
2017-Jun-19 14:29N 48°33' W 124°58'1010.1
2017-Jun-19 13:30N 48°30' W 124°43'5 9.9
2017-Jun-19 13:01N 48°29' W 124°37'510.7
2017-Jun-19 12:30N 48°27' W 124°29'611.6
2017-Jun-19 12:00N 48°25' W 124°21'611.8
2017-Jun-19 11:30N 48°22' W 124°13'611.6
2017-Jun-19 11:00N 48°20' W 124°05'611.3
2017-Jun-19 10:30N 48°18' W 123°57'611.0
2017-Jun-19 10:00N 48°17' W 123°49'611.1
2017-Jun-19 09:30N 48°16' W 123°40'510.8
2017-Jun-19 09:00N 48°15' W 123°32'5 9.9
2017-Jun-19 08:29N 48°15' W 123°25'510.0
2017-Jun-19 08:00N 48°14' W 123°18'510.0
2017-Jun-19 07:30N 48°13' W 123°10'510.0
2017-Jun-19 07:00N 48°13' W 123°03'5 9.7
2017-Jun-19 06:31N 48°12' W 122°56'4 8.7
2017-Jun-19 06:00N 48°12' W 122°49'16 7.1
2017-Jun-19 03:46N 47°59' W 122°35'2 8.0
2017-Jun-19 03:31N 47°57' W 122°33'4 8.2
2017-Jun-19 03:00N 47°54' W 122°29'4 9.0
2017-Jun-19 02:31N 47°50' W 122°27'5 9.4
2017-Jun-19 02:01N 47°45' W 122°26'5 9.2
2017-Jun-19 01:31N 47°41' W 122°25'1 2.4
2017-Jun-19 01:00N 47°40' W 122°24'0 0.5
2017-Jun-19 00:30N 47°40' W 122°23'0 0.1
2017-Jun-19 00:01N 47°40' W 122°23'0 0.3
2017-Jun-18 23:30N 47°40' W 122°23'0 0.0
2017-Jun-18 23:00N 47°40' W 122°23'0 0.0
2017-Jun-18 22:30N 47°40' W 122°23'0 0.0
2017-Jun-18 22:00N 47°40' W 122°23'0 0.0
2017-Jun-18 21:30N 47°40' W 122°23'0 0.0
2017-Jun-18 21:00N 47°40' W 122°23'0 0.0
2017-Jun-18 20:30N 47°40' W 122°23'0 0.0
2017-Jun-18 20:00N 47°40' W 122°23'0 0.0
2017-Jun-18 19:30N 47°40' W 122°23'0 0.0
2017-Jun-18 19:00N 47°40' W 122°23'0 0.0
2017-Jun-18 18:30N 47°40' W 122°23'0 0.0
2017-Jun-18 18:00N 47°40' W 122°23'0 0.0
2017-Jun-18 17:30N 47°40' W 122°23'0 0.0
2017-Jun-18 17:00N 47°40' W 122°23'0 0.0
2017-Jun-18 16:29N 47°40' W 122°23'0 0.0
2017-Jun-18 16:00N 47°40' W 122°23'0 0.0
2017-Jun-18 15:30N 47°40' W 122°23'0 0.0
2017-Jun-18 15:01N 47°40' W 122°23'0 0.0
2017-Jun-18 14:01N 47°40' W 122°23'0 0.0
2017-Jun-18 13:31N 47°40' W 122°23'0 0.0
2017-Jun-18 13:00N 47°40' W 122°23'0 0.0
2017-Jun-18 12:30N 47°40' W 122°23'0 0.0
2017-Jun-18 12:00N 47°40' W 122°23'0 0.0
2017-Jun-18 11:30N 47°40' W 122°23'0 0.0
2017-Jun-18 11:00N 47°40' W 122°23'0 0.0
2017-Jun-18 10:30N 47°40' W 122°23'0 0.0
2017-Jun-18 10:01N 47°40' W 122°23'0 0.0
2017-Jun-18 09:30N 47°40' W 122°23'0 0.0
2017-Jun-18 09:00N 47°40' W 122°23'0 0.0
2017-Jun-18 08:31N 47°40' W 122°23'0 0.0
2017-Jun-18 08:00N 47°40' W 122°23'0 0.0
2017-Jun-18 07:30N 47°40' W 122°23'0 0.0
2017-Jun-18 07:00N 47°40' W 122°23'0 0.0
2017-Jun-18 06:31N 47°40' W 122°23'0 0.0
2017-Jun-18 06:01N 47°40' W 122°23'0 0.0
2017-Jun-18 05:30N 47°40' W 122°23'0 0.0
2017-Jun-18 05:01N 47°40' W 122°23'0 0.0
2017-Jun-18 04:30N 47°40' W 122°23'0 0.0
2017-Jun-18 04:01N 47°40' W 122°23'0 0.0
2017-Jun-18 03:30N 47°40' W 122°23'0 0.0
2017-Jun-18 03:01N 47°40' W 122°23'0 0.0
2017-Jun-18 02:31N 47°40' W 122°23'0 0.0
2017-Jun-18 02:00N 47°40' W 122°23'0 0.0
2017-Jun-18 01:30N 47°40' W 122°23'0 0.0
2017-Jun-18 01:01N 47°40' W 122°23'0 0.0
2017-Jun-18 00:31N 47°40' W 122°23'0 0.0
2017-Jun-18 00:00N 47°40' W 122°23'0 0.0
2017-Jun-17 23:30N 47°40' W 122°23'0 0.0
2017-Jun-17 23:00N 47°40' W 122°23'0 0.0
2017-Jun-17 22:31N 47°40' W 122°23'0 0.0
2017-Jun-17 22:00N 47°40' W 122°23'0 0.0
2017-Jun-17 21:31N 47°40' W 122°23'0 0.0
2017-Jun-17 21:00N 47°40' W 122°23'0 0.0
2017-Jun-17 20:30N 47°40' W 122°23'0 0.0
2017-Jun-17 20:01N 47°40' W 122°23'0 0.0
2017-Jun-17 19:30N 47°40' W 122°23'0 0.0
2017-Jun-17 19:00N 47°40' W 122°23'0 0.0
2017-Jun-17 18:30N 47°40' W 122°23'0 0.0
2017-Jun-17 18:01N 47°40' W 122°23'0 0.0
2017-Jun-17 17:31N 47°40' W 122°23'0 0.0
2017-Jun-17 17:00N 47°40' W 122°23'0 0.0
2017-Jun-17 16:30N 47°40' W 122°23'0 0.0
2017-Jun-17 16:00N 47°40' W 122°23'0 0.0
2017-Jun-17 15:30N 47°40' W 122°23'0 0.0
2017-Jun-17 15:01N 47°40' W 122°23'0 0.0
2017-Jun-17 14:01N 47°40' W 122°23'0 0.0
2017-Jun-17 13:31N 47°40' W 122°23'0 0.0
2017-Jun-17 13:00N 47°40' W 122°23'0 0.0
2017-Jun-17 12:31N 47°40' W 122°23'0 0.0
2017-Jun-17 12:01N 47°40' W 122°23'0 0.0
2017-Jun-17 11:30N 47°40' W 122°23'0 0.0
2017-Jun-17 11:01N 47°40' W 122°23'0 0.0
2017-Jun-17 10:30N 47°40' W 122°23'0 0.0
2017-Jun-17 10:00N 47°40' W 122°23'0 0.0
2017-Jun-17 09:30N 47°40' W 122°23'0 0.0
2017-Jun-17 09:00N 47°40' W 122°23'0 0.0
2017-Jun-17 08:30N 47°40' W 122°23'0 0.0
2017-Jun-17 08:01N 47°40' W 122°23'0 0.0
2017-Jun-17 07:31N 47°40' W 122°23'0 0.0
2017-Jun-17 07:01N 47°40' W 122°23'0 0.0
2017-Jun-17 06:31N 47°40' W 122°23'0 0.0
2017-Jun-17 06:01N 47°40' W 122°23'0 0.0
2017-Jun-17 05:31N 47°40' W 122°23'0 0.0
2017-Jun-17 05:01N 47°40' W 122°23'0 0.0
2017-Jun-17 04:30N 47°40' W 122°23'0 0.0
2017-Jun-17 04:01N 47°40' W 122°23'0 0.0
2017-Jun-17 03:30N 47°40' W 122°23'0 0.0
2017-Jun-17 03:00N 47°40' W 122°23'0 0.0
2017-Jun-17 02:31N 47°40' W 122°23'0 0.0
2017-Jun-17 02:01N 47°40' W 122°23'0 0.0
2017-Jun-17 01:31N 47°40' W 122°23'0 0.0
2017-Jun-17 01:01N 47°40' W 122°23'0 0.0
2017-Jun-17 00:31N 47°40' W 122°23'0 0.0
2017-Jun-17 00:00N 47°40' W 122°23'0 0.0
2017-Jun-16 23:30N 47°40' W 122°23'0 0.0
2017-Jun-16 23:01N 47°40' W 122°23'0 0.0
2017-Jun-16 22:30N 47°40' W 122°23'0 0.0
2017-Jun-16 22:00N 47°40' W 122°23'0 0.0
2017-Jun-16 21:31N 47°40' W 122°23'0 0.0
2017-Jun-16 21:01N 47°40' W 122°23'0 0.0
2017-Jun-16 20:31N 47°40' W 122°23'0 0.0
2017-Jun-16 20:01N 47°40' W 122°23'0 0.0
2017-Jun-16 19:31N 47°40' W 122°23'0 0.0
2017-Jun-16 19:01N 47°40' W 122°23'0 0.0
2017-Jun-16 18:30N 47°40' W 122°23'0 0.0
2017-Jun-16 18:00N 47°40' W 122°23'0 0.0
2017-Jun-16 17:30N 47°40' W 122°23'0 0.0
2017-Jun-16 17:01N 47°40' W 122°23'0 0.0
2017-Jun-16 16:30N 47°40' W 122°23'0 0.0
2017-Jun-16 16:00N 47°40' W 122°23'0 0.0
2017-Jun-16 15:30N 47°40' W 122°23'0 0.0
2017-Jun-16 15:01N 47°40' W 122°23'0 0.0
2017-Jun-16 14:00N 47°40' W 122°23'0 0.0
2017-Jun-16 13:31N 47°40' W 122°23'0 0.0
2017-Jun-16 13:00N 47°40' W 122°23'0 0.0
2017-Jun-16 12:31N 47°40' W 122°23'0 0.0
2017-Jun-16 12:01N 47°40' W 122°23'0 0.0
2017-Jun-16 11:30N 47°40' W 122°23'0 0.0
2017-Jun-16 11:00N 47°40' W 122°23'0 0.0
2017-Jun-16 10:30N 47°40' W 122°23'0 0.0
2017-Jun-16 10:00N 47°40' W 122°23'0 0.0
2017-Jun-16 09:30N 47°40' W 122°23'0 0.0
2017-Jun-16 09:01N 47°40' W 122°23'0 0.0
2017-Jun-16 08:30N 47°40' W 122°23'0 0.0
2017-Jun-16 08:00N 47°40' W 122°23'0 0.0
2017-Jun-16 07:30N 47°40' W 122°23'0 0.0
2017-Jun-16 07:00N 47°40' W 122°23'0 0.0
2017-Jun-16 06:31N 47°40' W 122°23'0 0.0
2017-Jun-16 06:00N 47°40' W 122°23'0 0.0
2017-Jun-16 05:31N 47°40' W 122°23'0 0.0
2017-Jun-16 05:00N 47°40' W 122°23'0 0.0
2017-Jun-16 04:30N 47°40' W 122°23'0 0.0
2017-Jun-16 04:01N 47°40' W 122°23'0 0.0
2017-Jun-16 03:30N 47°40' W 122°23'0 0.0
2017-Jun-16 03:01N 47°40' W 122°23'0 0.0
2017-Jun-16 02:31N 47°40' W 122°23'0 0.0
2017-Jun-16 02:01N 47°40' W 122°23'0 0.0
2017-Jun-16 01:31N 47°40' W 122°23'0 0.0
2017-Jun-16 01:01N 47°40' W 122°23'0 0.0
2017-Jun-16 00:31N 47°40' W 122°23'0 0.0
2017-Jun-15 23:59N 47°40' W 122°23'0 0.0
2017-Jun-15 23:31N 47°40' W 122°23'0 0.0
2017-Jun-15 23:00N 47°40' W 122°23'0 0.0
2017-Jun-15 22:30N 47°40' W 122°23'0 0.0
2017-Jun-15 22:00N 47°40' W 122°23'0 0.1
2017-Jun-15 21:30N 47°40' W 122°23'0 0.1
2017-Jun-15 21:01N 47°40' W 122°23'0 0.0
2017-Jun-15 20:30N 47°40' W 122°23'0 0.0
2017-Jun-15 20:00N 47°40' W 122°23'0 0.0
2017-Jun-15 19:31N 47°40' W 122°23'0 0.0
2017-Jun-15 19:01N 47°40' W 122°23'0 0.0
2017-Jun-15 18:31N 47°40' W 122°23'0 0.0
2017-Jun-15 18:01N 47°40' W 122°23'0 0.0
2017-Jun-15 17:30N 47°40' W 122°23'0 0.0
2017-Jun-15 17:01N 47°40' W 122°23'0 0.0
2017-Jun-15 16:31N 47°40' W 122°23'0 0.0
2017-Jun-15 16:01N 47°40' W 122°23'0 0.0
2017-Jun-15 15:31N 47°40' W 122°23'0 0.0
2017-Jun-15 15:01N 47°40' W 122°23'0 0.0
2017-Jun-15 14:01N 47°40' W 122°23'0 0.0
2017-Jun-15 13:31N 47°40' W 122°23'0 0.0
2017-Jun-15 13:01N 47°40' W 122°23'0 0.0
2017-Jun-15 12:31N 47°40' W 122°23'0 0.0
2017-Jun-15 12:01N 47°40' W 122°23'0 0.0
2017-Jun-15 11:31N 47°40' W 122°23'0 0.0
2017-Jun-15 11:01N 47°40' W 122°23'0 0.0
2017-Jun-15 10:31N 47°40' W 122°23'0 0.0
2017-Jun-15 10:00N 47°40' W 122°23'0 0.0
2017-Jun-15 09:31N 47°40' W 122°23'0 0.0
2017-Jun-15 09:01N 47°40' W 122°23'0 0.0
2017-Jun-15 08:31N 47°40' W 122°23'0 0.0
2017-Jun-15 08:01N 47°40' W 122°23'0 0.0
2017-Jun-15 07:31N 47°40' W 122°23'0 0.0
2017-Jun-15 07:01N 47°40' W 122°23'0 0.0
2017-Jun-15 06:31N 47°40' W 122°23'0 0.0
2017-Jun-15 06:01N 47°40' W 122°23'0 0.0
2017-Jun-15 05:30N 47°40' W 122°23'0 0.0
2017-Jun-15 05:01N 47°40' W 122°23'0 0.0
2017-Jun-15 04:31N 47°40' W 122°23'0 0.0
2017-Jun-15 04:01N 47°40' W 122°23'0 0.0
2017-Jun-15 03:31N 47°40' W 122°23'0 0.0
2017-Jun-15 03:01N 47°40' W 122°23'0 0.0
2017-Jun-15 02:30N 47°40' W 122°23'0 0.0
2017-Jun-15 02:01N 47°40' W 122°23'0 0.0
2017-Jun-15 01:31N 47°40' W 122°23'0 0.0
2017-Jun-15 01:01N 47°40' W 122°23'0 0.0
2017-Jun-15 00:31N 47°40' W 122°23'0 0.0
2017-Jun-15 00:01N 47°40' W 122°23'0 0.0
2017-Jun-14 23:31N 47°40' W 122°23'0 0.0
2017-Jun-14 23:01N 47°40' W 122°23'0 0.0
2017-Jun-14 22:31N 47°40' W 122°23'0 0.0
2017-Jun-14 22:01N 47°40' W 122°23'0 0.0
2017-Jun-14 21:31N 47°40' W 122°23'0 0.0
2017-Jun-14 21:01N 47°40' W 122°23'0 0.0
2017-Jun-14 20:31N 47°40' W 122°23'0 0.0
2017-Jun-14 20:01N 47°40' W 122°23'0 0.0
2017-Jun-14 19:31N 47°40' W 122°23'0 0.0
2017-Jun-14 19:01N 47°40' W 122°23'0 0.0
2017-Jun-14 18:31N 47°40' W 122°23'0 0.0
2017-Jun-14 18:01N 47°40' W 122°23'0 0.0
2017-Jun-14 17:30N 47°40' W 122°23'0 0.0
2017-Jun-14 17:01N 47°40' W 122°23'0 0.0
2017-Jun-14 16:31N 47°40' W 122°23'0 0.0
2017-Jun-14 16:01N 47°40' W 122°23'0 0.0
2017-Jun-14 15:30N 47°40' W 122°23'0 0.0
2017-Jun-14 15:01N 47°40' W 122°23'0 0.0
2017-Jun-14 14:30N 47°40' W 122°23'0 0.0
2017-Jun-14 13:31N 47°40' W 122°23'0 0.0
2017-Jun-14 13:01N 47°40' W 122°23'0 0.0
2017-Jun-14 12:31N 47°40' W 122°23'0 0.0
2017-Jun-14 12:01N 47°40' W 122°23'0 0.0
2017-Jun-14 11:31N 47°40' W 122°23'0 0.0
2017-Jun-14 11:01N 47°40' W 122°23'0 0.0
2017-Jun-14 10:31N 47°40' W 122°23'0 0.0
2017-Jun-14 10:01N 47°40' W 122°23'0 0.0
2017-Jun-14 09:31N 47°40' W 122°23'0 0.0
2017-Jun-14 09:01N 47°40' W 122°23'0 0.0
2017-Jun-14 08:31N 47°40' W 122°23'0 0.0
2017-Jun-14 08:01N 47°40' W 122°23'0 0.0
2017-Jun-14 07:31N 47°40' W 122°23'0 0.0
2017-Jun-14 07:01N 47°40' W 122°23'0 0.0
2017-Jun-14 06:31N 47°40' W 122°23'0 0.0
2017-Jun-14 06:00N 47°40' W 122°23'0 0.0
2017-Jun-14 05:31N 47°40' W 122°23'0 0.0
2017-Jun-14 05:01N 47°40' W 122°23'0 0.0
2017-Jun-14 04:31N 47°40' W 122°23'0 0.0
2017-Jun-14 04:01N 47°40' W 122°23'0 0.0
2017-Jun-14 03:31N 47°40' W 122°23'0 0.0
2017-Jun-14 03:01N 47°40' W 122°23'0 0.0
2017-Jun-14 02:31N 47°40' W 122°23'0 0.0
2017-Jun-14 02:01N 47°40' W 122°23'0 0.0
2017-Jun-14 01:31N 47°40' W 122°23'0 0.0
2017-Jun-14 01:01N 47°40' W 122°23'0 0.0
2017-Jun-14 00:31N 47°40' W 122°23'0 0.0
2017-Jun-14 00:01N 47°40' W 122°23'0 0.0
2017-Jun-13 23:31N 47°40' W 122°23'0 0.0
2017-Jun-13 23:01N 47°40' W 122°23'0 0.0
2017-Jun-13 22:31N 47°40' W 122°23'0 0.0
2017-Jun-13 22:01N 47°40' W 122°23'0 0.0
2017-Jun-13 21:31N 47°40' W 122°23'0 0.0
2017-Jun-13 21:01N 47°40' W 122°23'0 0.0
2017-Jun-13 20:31N 47°40' W 122°23'0 0.0
2017-Jun-13 20:01N 47°40' W 122°23'0 0.0
2017-Jun-13 19:31N 47°40' W 122°23'0 0.0
2017-Jun-13 19:01N 47°40' W 122°23'0 0.0
2017-Jun-13 18:31N 47°40' W 122°23'0 0.0
2017-Jun-13 18:00N 47°40' W 122°23'0 0.0
2017-Jun-13 17:31N 47°40' W 122°23'0 0.0
2017-Jun-13 17:00N 47°40' W 122°23'0 0.0
2017-Jun-13 16:30N 47°40' W 122°23'0 0.0
2017-Jun-13 16:00N 47°40' W 122°23'0 0.0
2017-Jun-13 15:30N 47°40' W 122°23'0 0.0
2017-Jun-13 15:00N 47°40' W 122°23'0 0.0
2017-Jun-13 14:00N 47°40' W 122°23'0 0.0
2017-Jun-13 13:30N 47°40' W 122°23'0 0.0
2017-Jun-13 13:00N 47°40' W 122°23'0 0.0
2017-Jun-13 12:30N 47°40' W 122°23'0 0.0
2017-Jun-13 12:00N 47°40' W 122°23'0 0.0
2017-Jun-13 11:30N 47°40' W 122°23'0 0.0
2017-Jun-13 11:00N 47°40' W 122°23'0 0.0
2017-Jun-13 10:30N 47°40' W 122°23'0 0.0
2017-Jun-13 10:00N 47°40' W 122°23'0 0.0
2017-Jun-13 09:30N 47°40' W 122°23'0 0.0
2017-Jun-13 09:00N 47°40' W 122°23'0 0.0
2017-Jun-13 08:30N 47°40' W 122°23'0 0.0
2017-Jun-13 08:00N 47°40' W 122°23'0 0.0
2017-Jun-13 07:30N 47°40' W 122°23'0 0.0
2017-Jun-13 07:00N 47°40' W 122°23'0 0.0
2017-Jun-13 06:30N 47°40' W 122°23'0 0.0
2017-Jun-13 06:00N 47°40' W 122°23'0 0.0
2017-Jun-13 05:30N 47°40' W 122°23'0 0.0
2017-Jun-13 05:00N 47°40' W 122°23'0 0.0
2017-Jun-13 04:30N 47°40' W 122°23'0 0.0
2017-Jun-13 04:00N 47°40' W 122°23'0 0.0
2017-Jun-13 03:30N 47°40' W 122°23'0 0.0
2017-Jun-13 03:00N 47°40' W 122°23'0 0.0
2017-Jun-13 02:30N 47°40' W 122°23'0 0.0
2017-Jun-13 02:00N 47°40' W 122°23'0 0.0
2017-Jun-13 01:30N 47°40' W 122°23'0 0.0
2017-Jun-13 01:00N 47°40' W 122°23'0 0.0
2017-Jun-13 00:30N 47°40' W 122°23'0 0.0
2017-Jun-13 00:00N 47°40' W 122°23'0 0.0
2017-Jun-12 21:17N 47°40' W 122°23'0 0.0
2017-Jun-12 21:01N 47°40' W 122°23'0 0.0
2017-Jun-12 20:31N 47°40' W 122°23'0 0.0
2017-Jun-12 20:01N 47°40' W 122°23'0 0.0
2017-Jun-12 19:30N 47°40' W 122°23'0 0.0
2017-Jun-12 19:01N 47°40' W 122°23'0 0.0
2017-Jun-12 18:30N 47°40' W 122°23'0 0.0
2017-Jun-12 18:00N 47°40' W 122°23'0 0.0
2017-Jun-12 17:30N 47°40' W 122°23'0 0.0
2017-Jun-12 16:32N 47°40' W 122°23'0 0.0
2017-Jun-12 16:30N 47°40' W 122°23'0 0.0
2017-Jun-12 16:00N 47°40' W 122°23'0 0.0
2017-Jun-12 15:30N 47°40' W 122°23'0 0.0
2017-Jun-12 15:00N 47°40' W 122°23'0 0.0
2017-Jun-12 14:30N 47°40' W 122°23'0 0.0
2017-Jun-12 13:30N 47°40' W 122°23'0 0.0
2017-Jun-12 13:00N 47°40' W 122°23'0 0.0
2017-Jun-12 12:30N 47°40' W 122°23'0 0.0
2017-Jun-12 12:00N 47°40' W 122°23'0 0.0
2017-Jun-12 11:30N 47°40' W 122°23'0 0.0
2017-Jun-12 11:00N 47°40' W 122°23'0 0.0
2017-Jun-12 10:31N 47°40' W 122°23'0 0.0
2017-Jun-12 10:01N 47°40' W 122°23'0 0.0
2017-Jun-12 09:30N 47°40' W 122°23'0 0.0
2017-Jun-12 09:00N 47°40' W 122°23'0 0.0
2017-Jun-12 08:30N 47°40' W 122°23'0 0.0
2017-Jun-12 08:00N 47°40' W 122°23'0 0.0
2017-Jun-12 07:30N 47°40' W 122°23'0 0.0
2017-Jun-12 07:00N 47°40' W 122°23'0 0.0
2017-Jun-12 06:30N 47°40' W 122°23'0 0.0
2017-Jun-12 06:00N 47°40' W 122°23'0 0.0
2017-Jun-12 05:30N 47°40' W 122°23'0 0.0
2017-Jun-12 05:00N 47°40' W 122°23'0 0.0
2017-Jun-12 04:31N 47°40' W 122°23'0 0.0
2017-Jun-12 04:00N 47°40' W 122°23'0 0.0
2017-Jun-12 03:31N 47°40' W 122°23'0 0.0
2017-Jun-12 03:00N 47°40' W 122°23'0 0.0
2017-Jun-12 02:30N 47°40' W 122°23'0 0.0
2017-Jun-12 02:00N 47°40' W 122°23'0 0.0
2017-Jun-12 01:30N 47°40' W 122°23'0 0.0
2017-Jun-12 01:00N 47°40' W 122°23'0 0.0
2017-Jun-12 00:31N 47°40' W 122°23'0 0.0
2017-Jun-12 00:00N 47°40' W 122°23'0 0.0
2017-Jun-11 23:30N 47°40' W 122°23'0 0.0
2017-Jun-11 23:00N 47°40' W 122°23'0 0.0
2017-Jun-11 22:31N 47°40' W 122°23'0 0.0
2017-Jun-11 22:00N 47°40' W 122°23'0 0.0
2017-Jun-11 21:30N 47°40' W 122°23'0 0.0
2017-Jun-11 21:00N 47°40' W 122°23'0 0.0
2017-Jun-11 20:30N 47°40' W 122°23'0 0.0
2017-Jun-11 20:00N 47°40' W 122°23'0 0.0
2017-Jun-11 19:30N 47°40' W 122°23'0 0.0
2017-Jun-11 19:00N 47°40' W 122°23'0 0.0
2017-Jun-11 18:30N 47°40' W 122°23'0 0.0
2017-Jun-11 18:00N 47°40' W 122°23'0 0.0
2017-Jun-11 17:30N 47°40' W 122°23'0 0.0
2017-Jun-11 17:00N 47°40' W 122°23'0 0.0
2017-Jun-11 16:30N 47°40' W 122°23'0 0.0
2017-Jun-11 16:00N 47°40' W 122°23'0 0.0
2017-Jun-11 15:30N 47°40' W 122°23'0 0.0
2017-Jun-11 15:00N 47°40' W 122°23'0 0.0
2017-Jun-11 14:30N 47°40' W 122°23'0 0.0
2017-Jun-11 13:30N 47°40' W 122°23'0 0.0
2017-Jun-11 13:00N 47°40' W 122°23'0 0.0
2017-Jun-11 12:31N 47°40' W 122°23'0 0.0
2017-Jun-11 12:00N 47°40' W 122°23'0 0.0
2017-Jun-11 11:31N 47°40' W 122°23'0 0.0
2017-Jun-11 11:00N 47°40' W 122°23'0 0.0
2017-Jun-11 10:30N 47°40' W 122°23'0 0.0
2017-Jun-11 10:00N 47°40' W 122°23'0 0.0
2017-Jun-11 09:31N 47°40' W 122°23'0 0.0
2017-Jun-11 09:01N 47°40' W 122°23'0 0.0
2017-Jun-11 08:31N 47°40' W 122°23'0 0.0
2017-Jun-11 08:00N 47°40' W 122°23'0 0.0
2017-Jun-11 07:30N 47°40' W 122°23'0 0.0
2017-Jun-11 07:00N 47°40' W 122°23'0 0.0
2017-Jun-11 06:30N 47°40' W 122°23'0 0.0
2017-Jun-11 06:00N 47°40' W 122°23'0 0.0
2017-Jun-11 05:31N 47°40' W 122°23'0 0.0
2017-Jun-11 05:00N 47°40' W 122°23'0 0.0
2017-Jun-11 04:30N 47°40' W 122°23'0 0.0
2017-Jun-11 04:00N 47°40' W 122°23'0 0.0
2017-Jun-11 03:30N 47°40' W 122°23'0 0.0
2017-Jun-11 03:00N 47°40' W 122°23'0 0.0
2017-Jun-11 02:31N 47°40' W 122°23'0 0.0
2017-Jun-11 02:00N 47°40' W 122°23'0 0.0
2017-Jun-11 01:30N 47°40' W 122°23'0 0.0
2017-Jun-11 01:00N 47°40' W 122°23'0 0.0
2017-Jun-11 00:30N 47°40' W 122°23'0 0.0
2017-Jun-11 00:00N 47°40' W 122°23'0 0.0
2017-Jun-10 23:30N 47°40' W 122°23'0 0.0
2017-Jun-10 23:01N 47°40' W 122°23'0 0.0
2017-Jun-10 22:31N 47°40' W 122°23'0 0.0
2017-Jun-10 22:01N 47°40' W 122°23'0 0.0
2017-Jun-10 21:30N 47°40' W 122°23'0 0.0
2017-Jun-10 21:00N 47°40' W 122°23'0 0.0
2017-Jun-10 20:30N 47°40' W 122°23'0 0.0
2017-Jun-10 20:00N 47°40' W 122°23'0 0.0
2017-Jun-10 19:30N 47°40' W 122°23'0 0.0
2017-Jun-10 19:00N 47°40' W 122°23'0 0.0
2017-Jun-10 18:30N 47°40' W 122°23'0 0.0
2017-Jun-10 18:00N 47°40' W 122°23'0 0.0
2017-Jun-10 17:30N 47°40' W 122°23'0 0.0
2017-Jun-10 17:01N 47°40' W 122°23'0 0.0
2017-Jun-10 16:30N 47°40' W 122°23'0 0.0
2017-Jun-10 16:00N 47°40' W 122°23'0 0.0
2017-Jun-10 15:30N 47°40' W 122°23'0 0.0
2017-Jun-10 15:00N 47°40' W 122°23'0 0.0
2017-Jun-10 14:00N 47°40' W 122°23'0 0.0
2017-Jun-10 13:30N 47°40' W 122°23'0 0.0
2017-Jun-10 13:00N 47°40' W 122°23'0 0.0
2017-Jun-10 12:31N 47°40' W 122°23'0 0.0
2017-Jun-10 12:00N 47°40' W 122°23'0 0.0
2017-Jun-10 11:31N 47°40' W 122°23'0 0.0
2017-Jun-10 11:00N 47°40' W 122°23'0 0.0
2017-Jun-10 10:30N 47°40' W 122°23'0 0.0
2017-Jun-10 10:00N 47°40' W 122°23'0 0.0
2017-Jun-10 09:30N 47°40' W 122°23'0 0.0
2017-Jun-10 09:00N 47°40' W 122°23'0 0.0
2017-Jun-10 08:31N 47°40' W 122°23'0 0.0
2017-Jun-10 08:01N 47°40' W 122°23'0 0.0
2017-Jun-10 07:30N 47°40' W 122°23'0 0.0
2017-Jun-10 07:00N 47°40' W 122°23'0 0.0
2017-Jun-10 06:31N 47°40' W 122°23'0 0.0
2017-Jun-10 06:00N 47°40' W 122°23'0 0.0
2017-Jun-10 05:30N 47°40' W 122°23'0 0.0
2017-Jun-10 05:00N 47°40' W 122°23'0 0.0
2017-Jun-10 04:30N 47°40' W 122°23'0 0.0
2017-Jun-10 04:00N 47°40' W 122°23'0 0.0
2017-Jun-10 03:31N 47°40' W 122°23'0 0.0
2017-Jun-10 03:01N 47°40' W 122°23'0 0.0
2017-Jun-10 02:30N 47°40' W 122°23'0 0.0
2017-Jun-10 02:01N 47°40' W 122°23'0 0.0
2017-Jun-10 01:30N 47°40' W 122°23'0 0.0
2017-Jun-10 01:00N 47°40' W 122°23'0 0.0
2017-Jun-10 00:30N 47°40' W 122°23'0 0.0
2017-Jun-10 00:00N 47°40' W 122°23'  

Dump ship's entire track history